sensor_id;sensor_type;location;lat;lon;timestamp;pressure;altitude;pressure_sealevel;temperature;humidity
35577;BME280;21680;52.400;16.920;2023-07-31T00:02:21;100255.99;;;16.38;74.05
35577;BME280;21680;52.400;16.920;2023-07-31T00:04:46;100259.55;;;16.36;74.39
35577;BME280;21680;52.400;16.920;2023-07-31T00:07:12;100254.05;;;16.35;74.52
35577;BME280;21680;52.400;16.920;2023-07-31T00:09:37;100251.55;;;16.35;74.66
35577;BME280;21680;52.400;16.920;2023-07-31T00:12:03;100253.86;;;16.35;74.86
35577;BME280;21680;52.400;16.920;2023-07-31T00:14:28;100254.25;;;16.35;75.08
35577;BME280;21680;52.400;16.920;2023-07-31T00:16:54;100250.14;;;16.35;75.15
35577;BME280;21680;52.400;16.920;2023-07-31T00:19:19;100249.91;;;16.33;75.29
35577;BME280;21680;52.400;16.920;2023-07-31T00:21:44;100251.46;;;16.31;75.24
35577;BME280;21680;52.400;16.920;2023-07-31T00:24:10;100254.98;;;16.28;75.59
35577;BME280;21680;52.400;16.920;2023-07-31T00:26:35;100249.20;;;16.26;75.67
35577;BME280;21680;52.400;16.920;2023-07-31T00:29:00;100256.61;;;16.22;75.85
35577;BME280;21680;52.400;16.920;2023-07-31T00:31:26;100254.02;;;16.19;75.99
35577;BME280;21680;52.400;16.920;2023-07-31T00:33:51;100257.33;;;16.15;76.02
35577;BME280;21680;52.400;16.920;2023-07-31T00:36:17;100253.27;;;16.11;76.31
35577;BME280;21680;52.400;16.920;2023-07-31T00:38:43;100257.45;;;16.09;76.33
35577;BME280;21680;52.400;16.920;2023-07-31T00:41:08;100258.32;;;16.07;76.52
35577;BME280;21680;52.400;16.920;2023-07-31T00:43:34;100255.58;;;16.05;76.71
35577;BME280;21680;52.400;16.920;2023-07-31T00:45:59;100259.23;;;16.02;76.80
35577;BME280;21680;52.400;16.920;2023-07-31T00:48:25;100262.22;;;15.98;76.88
35577;BME280;21680;52.400;16.920;2023-07-31T00:50:50;100264.85;;;15.94;77.12
35577;BME280;21680;52.400;16.920;2023-07-31T00:53:16;100257.39;;;15.89;77.38
35577;BME280;21680;52.400;16.920;2023-07-31T00:55:42;100257.39;;;15.87;77.51
35577;BME280;21680;52.400;16.920;2023-07-31T00:58:08;100260.66;;;15.84;77.72
35577;BME280;21680;52.400;16.920;2023-07-31T01:00:33;100265.80;;;15.83;77.88
35577;BME280;21680;52.400;16.920;2023-07-31T01:02:59;100263.83;;;15.80;78.31
35577;BME280;21680;52.400;16.920;2023-07-31T01:05:33;100256.52;;;15.76;78.28
35577;BME280;21680;52.400;16.920;2023-07-31T01:08:12;100253.64;;;15.74;78.44
35577;BME280;21680;52.400;16.920;2023-07-31T01:10:50;100252.13;;;15.73;78.65
35577;BME280;21680;52.400;16.920;2023-07-31T01:13:20;100251.15;;;15.71;78.74
35577;BME280;21680;52.400;16.920;2023-07-31T01:15:46;100253.73;;;15.70;78.83
35577;BME280;21680;52.400;16.920;2023-07-31T01:18:11;100254.56;;;15.68;78.97
35577;BME280;21680;52.400;16.920;2023-07-31T01:20:37;100257.23;;;15.69;79.14
35577;BME280;21680;52.400;16.920;2023-07-31T01:26:18;100255.06;;;15.72;79.25
35577;BME280;21680;52.400;16.920;2023-07-31T01:29:08;100260.31;;;15.71;79.50
35577;BME280;21680;52.400;16.920;2023-07-31T01:31:36;100255.52;;;15.70;79.53
35577;BME280;21680;52.400;16.920;2023-07-31T01:34:03;100251.20;;;15.70;79.64
35577;BME280;21680;52.400;16.920;2023-07-31T01:36:30;100252.71;;;15.69;79.62
35577;BME280;21680;52.400;16.920;2023-07-31T01:38:59;100249.83;;;15.67;79.63
35577;BME280;21680;52.400;16.920;2023-07-31T01:41:26;100246.27;;;15.64;79.75
35577;BME280;21680;52.400;16.920;2023-07-31T01:43:51;100243.65;;;15.60;79.75
35577;BME280;21680;52.400;16.920;2023-07-31T01:46:16;100247.31;;;15.56;80.04
35577;BME280;21680;52.400;16.920;2023-07-31T01:48:41;100249.59;;;15.55;79.96
35577;BME280;21680;52.400;16.920;2023-07-31T01:51:07;100256.20;;;15.53;80.25
35577;BME280;21680;52.400;16.920;2023-07-31T01:53:32;100251.27;;;15.51;80.15
35577;BME280;21680;52.400;16.920;2023-07-31T01:55:57;100252.84;;;15.50;80.43
35577;BME280;21680;52.400;16.920;2023-07-31T01:58:22;100250.02;;;15.49;80.41
35577;BME280;21680;52.400;16.920;2023-07-31T02:00:48;100253.39;;;15.47;80.50
35577;BME280;21680;52.400;16.920;2023-07-31T02:03:13;100256.93;;;15.45;80.53
35577;BME280;21680;52.400;16.920;2023-07-31T02:05:48;100250.33;;;15.44;80.65
35577;BME280;21680;52.400;16.920;2023-07-31T02:08:14;100247.84;;;15.44;80.72
35577;BME280;21680;52.400;16.920;2023-07-31T02:10:40;100252.61;;;15.43;80.79
35577;BME280;21680;52.400;16.920;2023-07-31T02:13:05;100249.25;;;15.42;80.88
35577;BME280;21680;52.400;16.920;2023-07-31T02:15:31;100251.23;;;15.42;81.01
35577;BME280;21680;52.400;16.920;2023-07-31T02:17:59;100250.00;;;15.42;80.95
35577;BME280;21680;52.400;16.920;2023-07-31T02:20:24;100249.89;;;15.40;80.95
35577;BME280;21680;52.400;16.920;2023-07-31T02:22:49;100253.66;;;15.38;81.07
35577;BME280;21680;52.400;16.920;2023-07-31T02:25:15;100247.90;;;15.35;81.12
35577;BME280;21680;52.400;16.920;2023-07-31T02:27:40;100249.70;;;15.33;81.21
35577;BME280;21680;52.400;16.920;2023-07-31T02:30:06;100248.60;;;15.31;81.13
35577;BME280;21680;52.400;16.920;2023-07-31T02:32:32;100249.68;;;15.28;81.44
35577;BME280;21680;52.400;16.920;2023-07-31T02:34:57;100249.01;;;15.27;81.47
35577;BME280;21680;52.400;16.920;2023-07-31T02:37:23;100252.50;;;15.26;81.52
35577;BME280;21680;52.400;16.920;2023-07-31T02:39:48;100258.91;;;15.24;81.68
35577;BME280;21680;52.400;16.920;2023-07-31T02:42:14;100258.52;;;15.22;81.82
35577;BME280;21680;52.400;16.920;2023-07-31T02:44:39;100258.67;;;15.20;81.81
35577;BME280;21680;52.400;16.920;2023-07-31T02:47:05;100253.70;;;15.16;81.92
35577;BME280;21680;52.400;16.920;2023-07-31T02:49:30;100250.76;;;15.15;81.88
35577;BME280;21680;52.400;16.920;2023-07-31T02:51:55;100253.27;;;15.12;82.12
35577;BME280;21680;52.400;16.920;2023-07-31T02:54:20;100255.69;;;15.11;82.30
35577;BME280;21680;52.400;16.920;2023-07-31T02:56:47;100256.41;;;15.08;82.31
35577;BME280;21680;52.400;16.920;2023-07-31T02:59:12;100256.23;;;15.06;82.26
35577;BME280;21680;52.400;16.920;2023-07-31T03:01:37;100254.75;;;15.04;82.58
35577;BME280;21680;52.400;16.920;2023-07-31T03:04:03;100255.14;;;15.03;82.74
35577;BME280;21680;52.400;16.920;2023-07-31T03:06:28;100259.29;;;15.03;82.80
35577;BME280;21680;52.400;16.920;2023-07-31T03:08:53;100261.77;;;15.01;82.72
35577;BME280;21680;52.400;16.920;2023-07-31T03:11:19;100261.02;;;14.99;82.73
35577;BME280;21680;52.400;16.920;2023-07-31T03:13:44;100255.83;;;14.96;82.83
35577;BME280;21680;52.400;16.920;2023-07-31T03:16:09;100256.56;;;14.93;83.07
35577;BME280;21680;52.400;16.920;2023-07-31T03:18:34;100258.20;;;14.93;83.15
35577;BME280;21680;52.400;16.920;2023-07-31T03:20:59;100255.42;;;14.91;83.20
35577;BME280;21680;52.400;16.920;2023-07-31T03:23:25;100248.34;;;14.90;83.36
35577;BME280;21680;52.400;16.920;2023-07-31T03:25:58;100249.79;;;14.89;83.45
35577;BME280;21680;52.400;16.920;2023-07-31T03:28:23;100248.81;;;14.88;83.49
35577;BME280;21680;52.400;16.920;2023-07-31T03:30:49;100247.40;;;14.87;83.64
35577;BME280;21680;52.400;16.920;2023-07-31T03:33:14;100245.75;;;14.88;83.64
35577;BME280;21680;52.400;16.920;2023-07-31T03:35:39;100237.65;;;14.88;83.74
35577;BME280;21680;52.400;16.920;2023-07-31T03:38:04;100241.71;;;14.89;83.89
35577;BME280;21680;52.400;16.920;2023-07-31T03:40:29;100250.61;;;14.91;83.99
35577;BME280;21680;52.400;16.920;2023-07-31T03:42:55;100248.91;;;14.92;83.95
35577;BME280;21680;52.400;16.920;2023-07-31T03:45:20;100252.64;;;14.92;84.12
35577;BME280;21680;52.400;16.920;2023-07-31T03:47:45;100246.00;;;14.92;84.14
35577;BME280;21680;52.400;16.920;2023-07-31T03:50:10;100248.73;;;14.92;84.28
35577;BME280;21680;52.400;16.920;2023-07-31T03:52:36;100251.69;;;14.91;84.29
35577;BME280;21680;52.400;16.920;2023-07-31T03:55:01;100248.73;;;14.89;84.38
35577;BME280;21680;52.400;16.920;2023-07-31T03:57:26;100249.69;;;14.88;84.43
35577;BME280;21680;52.400;16.920;2023-07-31T03:59:52;100246.72;;;14.87;84.70
35577;BME280;21680;52.400;16.920;2023-07-31T04:02:17;100247.77;;;14.87;84.67
35577;BME280;21680;52.400;16.920;2023-07-31T04:04:43;100245.31;;;14.87;84.73
35577;BME280;21680;52.400;16.920;2023-07-31T04:07:09;100253.64;;;14.86;84.91
35577;BME280;21680;52.400;16.920;2023-07-31T04:09:34;100254.81;;;14.87;85.13
35577;BME280;21680;52.400;16.920;2023-07-31T04:11:59;100253.09;;;14.89;85.09
35577;BME280;21680;52.400;16.920;2023-07-31T04:14:24;100251.92;;;14.90;85.15
35577;BME280;21680;52.400;16.920;2023-07-31T04:16:50;100253.85;;;14.91;85.26
35577;BME280;21680;52.400;16.920;2023-07-31T04:19:15;100252.44;;;14.93;85.47
35577;BME280;21680;52.400;16.920;2023-07-31T04:21:42;100252.56;;;14.93;85.38
35577;BME280;21680;52.400;16.920;2023-07-31T04:24:07;100250.94;;;14.94;85.36
35577;BME280;21680;52.400;16.920;2023-07-31T04:26:32;100254.20;;;14.93;85.58
35577;BME280;21680;52.400;16.920;2023-07-31T04:28:58;100252.16;;;14.94;85.66
35577;BME280;21680;52.400;16.920;2023-07-31T04:31:23;100253.13;;;14.96;85.75
35577;BME280;21680;52.400;16.920;2023-07-31T04:33:48;100257.89;;;14.97;85.93
35577;BME280;21680;52.400;16.920;2023-07-31T04:36:14;100256.88;;;14.99;85.98
35577;BME280;21680;52.400;16.920;2023-07-31T04:38:39;100253.02;;;15.01;86.20
35577;BME280;21680;52.400;16.920;2023-07-31T04:41:06;100252.14;;;15.00;86.10
35577;BME280;21680;52.400;16.920;2023-07-31T04:43:31;100254.08;;;15.01;86.27
35577;BME280;21680;52.400;16.920;2023-07-31T04:45:56;100252.49;;;15.00;86.59
35577;BME280;21680;52.400;16.920;2023-07-31T04:48:23;100253.17;;;14.98;86.76
35577;BME280;21680;52.400;16.920;2023-07-31T04:50:48;100252.38;;;14.99;86.76
35577;BME280;21680;52.400;16.920;2023-07-31T04:53:14;100252.47;;;15.00;86.80
35577;BME280;21680;52.400;16.920;2023-07-31T04:55:39;100245.39;;;15.01;86.86
35577;BME280;21680;52.400;16.920;2023-07-31T04:58:04;100247.06;;;15.03;87.00
35577;BME280;21680;52.400;16.920;2023-07-31T05:00:29;100251.84;;;15.04;86.99
35577;BME280;21680;52.400;16.920;2023-07-31T05:02:55;100255.45;;;15.04;87.02
35577;BME280;21680;52.400;16.920;2023-07-31T05:05:20;100253.84;;;15.04;87.10
35577;BME280;21680;52.400;16.920;2023-07-31T05:07:45;100250.08;;;15.04;87.22
35577;BME280;21680;52.400;16.920;2023-07-31T05:10:10;100244.63;;;15.05;87.31
35577;BME280;21680;52.400;16.920;2023-07-31T05:12:36;100245.48;;;15.05;87.34
35577;BME280;21680;52.400;16.920;2023-07-31T05:15:01;100242.30;;;15.07;87.34
35577;BME280;21680;52.400;16.920;2023-07-31T05:17:27;100242.27;;;15.10;87.64
35577;BME280;21680;52.400;16.920;2023-07-31T05:19:52;100237.43;;;15.15;87.63
35577;BME280;21680;52.400;16.920;2023-07-31T05:22:17;100237.88;;;15.19;87.75
35577;BME280;21680;52.400;16.920;2023-07-31T05:24:42;100237.90;;;15.24;87.60
35577;BME280;21680;52.400;16.920;2023-07-31T05:27:08;100237.73;;;15.26;87.82
35577;BME280;21680;52.400;16.920;2023-07-31T05:29:34;100239.55;;;15.29;87.94
35577;BME280;21680;52.400;16.920;2023-07-31T05:32:00;100236.65;;;15.32;88.10
35577;BME280;21680;52.400;16.920;2023-07-31T05:34:25;100235.02;;;15.34;88.12
35577;BME280;21680;52.400;16.920;2023-07-31T05:36:50;100225.88;;;15.41;88.23
35577;BME280;21680;52.400;16.920;2023-07-31T05:39:15;100222.26;;;15.49;88.35
35577;BME280;21680;52.400;16.920;2023-07-31T05:41:41;100223.73;;;15.57;88.38
35577;BME280;21680;52.400;16.920;2023-07-31T05:44:06;100223.45;;;15.63;88.31
35577;BME280;21680;52.400;16.920;2023-07-31T05:46:31;100222.73;;;15.73;88.39
35577;BME280;21680;52.400;16.920;2023-07-31T05:48:56;100223.19;;;15.84;88.34
35577;BME280;21680;52.400;16.920;2023-07-31T05:51:22;100219.54;;;15.97;88.63
35577;BME280;21680;52.400;16.920;2023-07-31T05:53:47;100211.39;;;16.10;88.55
35577;BME280;21680;52.400;16.920;2023-07-31T05:56:12;100207.40;;;16.22;88.47
35577;BME280;21680;52.400;16.920;2023-07-31T05:58:38;100207.90;;;16.35;88.58
35577;BME280;21680;52.400;16.920;2023-07-31T06:01:03;100210.71;;;16.48;88.53
35577;BME280;21680;52.400;16.920;2023-07-31T06:03:28;100207.20;;;16.54;88.35
35577;BME280;21680;52.400;16.920;2023-07-31T06:05:53;100207.46;;;16.60;88.30
35577;BME280;21680;52.400;16.920;2023-07-31T06:08:18;100210.09;;;16.71;88.34
35577;BME280;21680;52.400;16.920;2023-07-31T06:10:44;100215.14;;;16.83;88.19
35577;BME280;21680;52.400;16.920;2023-07-31T06:13:09;100210.86;;;16.94;88.21
35577;BME280;21680;52.400;16.920;2023-07-31T06:15:34;100209.02;;;17.06;88.09
35577;BME280;21680;52.400;16.920;2023-07-31T06:17:59;100210.48;;;17.15;87.96
35577;BME280;21680;52.400;16.920;2023-07-31T06:20:27;100207.63;;;17.22;87.80
35577;BME280;21680;52.400;16.920;2023-07-31T06:22:52;100205.62;;;17.29;87.64
35577;BME280;21680;52.400;16.920;2023-07-31T06:25:18;100205.34;;;17.39;87.58
35577;BME280;21680;52.400;16.920;2023-07-31T06:27:43;100206.66;;;17.45;87.30
35577;BME280;21680;52.400;16.920;2023-07-31T06:30:09;100202.82;;;17.46;86.84
35577;BME280;21680;52.400;16.920;2023-07-31T06:32:34;100201.20;;;17.50;86.83
35577;BME280;21680;52.400;16.920;2023-07-31T06:34:59;100202.02;;;17.59;86.69
35577;BME280;21680;52.400;16.920;2023-07-31T06:37:25;100199.95;;;17.66;86.65
35577;BME280;21680;52.400;16.920;2023-07-31T06:39:50;100192.63;;;17.77;86.43
35577;BME280;21680;52.400;16.920;2023-07-31T06:42:15;100196.55;;;17.87;86.29
35577;BME280;21680;52.400;16.920;2023-07-31T06:44:41;100204.20;;;17.99;86.16
35577;BME280;21680;52.400;16.920;2023-07-31T06:47:06;100203.23;;;18.11;85.90
35577;BME280;21680;52.400;16.920;2023-07-31T06:49:31;100200.28;;;18.18;85.59
35577;BME280;21680;52.400;16.920;2023-07-31T06:51:56;100199.08;;;18.26;85.30
35577;BME280;21680;52.400;16.920;2023-07-31T06:54:22;100192.94;;;18.28;84.93
35577;BME280;21680;52.400;16.920;2023-07-31T06:56:47;100191.84;;;18.28;84.88
35577;BME280;21680;52.400;16.920;2023-07-31T06:59:12;100193.27;;;18.34;84.66
35577;BME280;21680;52.400;16.920;2023-07-31T07:01:37;100197.45;;;18.45;84.56
35577;BME280;21680;52.400;16.920;2023-07-31T07:04:03;100195.52;;;18.51;84.39
35577;BME280;21680;52.400;16.920;2023-07-31T07:06:28;100192.23;;;18.56;83.96
35577;BME280;21680;52.400;16.920;2023-07-31T07:08:53;100192.84;;;18.57;83.53
35577;BME280;21680;52.400;16.920;2023-07-31T07:11:18;100193.45;;;18.50;82.92
35577;BME280;21680;52.400;16.920;2023-07-31T07:13:44;100190.92;;;18.43;82.71
35577;BME280;21680;52.400;16.920;2023-07-31T07:16:09;100193.52;;;18.40;82.52
35577;BME280;21680;52.400;16.920;2023-07-31T07:18:35;100192.36;;;18.39;82.13
35577;BME280;21680;52.400;16.920;2023-07-31T07:21:00;100194.29;;;18.42;81.89
35577;BME280;21680;52.400;16.920;2023-07-31T07:23:27;100195.95;;;18.46;81.63
35577;BME280;21680;52.400;16.920;2023-07-31T07:25:52;100198.65;;;18.50;81.46
35577;BME280;21680;52.400;16.920;2023-07-31T07:28:17;100195.64;;;18.52;81.20
35577;BME280;21680;52.400;16.920;2023-07-31T07:30:43;100194.21;;;18.58;81.25
35577;BME280;21680;52.400;16.920;2023-07-31T07:33:08;100194.86;;;18.61;80.87
35577;BME280;21680;52.400;16.920;2023-07-31T07:35:34;100196.67;;;18.59;80.50
35577;BME280;21680;52.400;16.920;2023-07-31T07:38:00;100196.48;;;18.57;80.45
35577;BME280;21680;52.400;16.920;2023-07-31T07:40:26;100197.44;;;18.59;80.33
35577;BME280;21680;52.400;16.920;2023-07-31T07:42:51;100206.46;;;18.63;80.24
35577;BME280;21680;52.400;16.920;2023-07-31T07:45:16;100209.05;;;18.58;79.39
35577;BME280;21680;52.400;16.920;2023-07-31T07:47:42;100207.80;;;18.54;79.43
35577;BME280;21680;52.400;16.920;2023-07-31T07:50:08;100212.73;;;18.57;79.40
35577;BME280;21680;52.400;16.920;2023-07-31T07:52:33;100212.87;;;18.56;78.77
35577;BME280;21680;52.400;16.920;2023-07-31T07:54:59;100211.91;;;18.50;78.63
35577;BME280;21680;52.400;16.920;2023-07-31T07:57:25;100212.98;;;18.45;78.50
35577;BME280;21680;52.400;16.920;2023-07-31T07:59:50;100216.54;;;18.40;77.91
35577;BME280;21680;52.400;16.920;2023-07-31T08:02:16;100212.70;;;18.25;77.64
35577;BME280;21680;52.400;16.920;2023-07-31T08:04:41;100210.30;;;18.17;77.63
35577;BME280;21680;52.400;16.920;2023-07-31T08:07:06;100211.65;;;18.20;77.95
35577;BME280;21680;52.400;16.920;2023-07-31T08:09:31;100212.04;;;18.22;77.67
35577;BME280;21680;52.400;16.920;2023-07-31T08:11:57;100211.52;;;18.22;77.69
35577;BME280;21680;52.400;16.920;2023-07-31T08:14:27;100210.05;;;18.20;77.43
35577;BME280;21680;52.400;16.920;2023-07-31T08:16:52;100208.05;;;18.16;77.41
35577;BME280;21680;52.400;16.920;2023-07-31T08:19:17;100208.42;;;18.18;77.52
35577;BME280;21680;52.400;16.920;2023-07-31T08:21:43;100209.83;;;18.16;77.39
35577;BME280;21680;52.400;16.920;2023-07-31T08:24:08;100211.39;;;18.17;77.55
35577;BME280;21680;52.400;16.920;2023-07-31T08:26:33;100209.14;;;18.22;77.53
35577;BME280;21680;52.400;16.920;2023-07-31T08:28:58;100207.38;;;18.22;77.45
35577;BME280;21680;52.400;16.920;2023-07-31T08:31:24;100202.64;;;18.30;77.71
35577;BME280;21680;52.400;16.920;2023-07-31T08:33:49;100208.09;;;18.37;77.53
35577;BME280;21680;52.400;16.920;2023-07-31T08:36:14;100211.01;;;18.43;77.48
35577;BME280;21680;52.400;16.920;2023-07-31T08:38:39;100219.66;;;18.45;77.47
35577;BME280;21680;52.400;16.920;2023-07-31T08:41:05;100214.98;;;18.43;77.08
35577;BME280;21680;52.400;16.920;2023-07-31T08:43:32;100209.23;;;18.40;76.98
35577;BME280;21680;52.400;16.920;2023-07-31T08:45:59;100207.16;;;18.39;77.11
35577;BME280;21680;52.400;16.920;2023-07-31T08:48:26;100210.05;;;18.39;77.20
35577;BME280;21680;52.400;16.920;2023-07-31T08:50:53;100208.16;;;18.38;76.92
35577;BME280;21680;52.400;16.920;2023-07-31T08:53:18;100206.91;;;18.34;76.90
35577;BME280;21680;52.400;16.920;2023-07-31T08:55:44;100201.36;;;18.33;76.83
35577;BME280;21680;52.400;16.920;2023-07-31T08:58:12;100199.64;;;18.36;77.00
35577;BME280;21680;52.400;16.920;2023-07-31T09:00:38;100197.46;;;18.41;76.79
35577;BME280;21680;52.400;16.920;2023-07-31T09:03:15;100198.56;;;18.44;76.71
35577;BME280;21680;52.400;16.920;2023-07-31T09:05:43;100199.21;;;18.52;76.68
35577;BME280;21680;52.400;16.920;2023-07-31T09:08:10;100198.17;;;18.61;76.62
35577;BME280;21680;52.400;16.920;2023-07-31T09:10:44;100193.50;;;18.67;76.48
35577;BME280;21680;52.400;16.920;2023-07-31T09:13:11;100195.37;;;18.74;76.30
35577;BME280;21680;52.400;16.920;2023-07-31T09:15:36;100191.62;;;18.74;76.05
35577;BME280;21680;52.400;16.920;2023-07-31T09:18:03;100191.92;;;18.68;75.77
35577;BME280;21680;52.400;16.920;2023-07-31T09:20:29;100191.15;;;18.69;75.78
35577;BME280;21680;52.400;16.920;2023-07-31T09:22:55;100189.95;;;18.72;75.66
35577;BME280;21680;52.400;16.920;2023-07-31T09:25:23;100187.38;;;18.73;75.53
35577;BME280;21680;52.400;16.920;2023-07-31T09:27:58;100189.98;;;18.74;75.46
35577;BME280;21680;52.400;16.920;2023-07-31T09:30:24;100187.33;;;18.65;75.13
35577;BME280;21680;52.400;16.920;2023-07-31T09:32:51;100189.16;;;18.54;74.98
35577;BME280;21680;52.400;16.920;2023-07-31T09:35:31;100192.98;;;18.46;74.99
35577;BME280;21680;52.400;16.920;2023-07-31T09:37:58;100193.83;;;18.30;74.81
35577;BME280;21680;52.400;16.920;2023-07-31T09:40:38;100199.31;;;18.12;75.14
35577;BME280;21680;52.400;16.920;2023-07-31T09:43:05;100192.91;;;18.00;75.33
35577;BME280;21680;52.400;16.920;2023-07-31T09:45:34;100194.74;;;17.84;75.39
35577;BME280;21680;52.400;16.920;2023-07-31T09:48:02;100203.19;;;17.69;75.75
35577;BME280;21680;52.400;16.920;2023-07-31T09:50:28;100206.96;;;17.55;76.00
35577;BME280;21680;52.400;16.920;2023-07-31T09:52:54;100206.04;;;17.42;76.01
35577;BME280;21680;52.400;16.920;2023-07-31T09:55:20;100209.31;;;17.32;76.35
35577;BME280;21680;52.400;16.920;2023-07-31T09:57:48;100211.26;;;17.19;76.85
35577;BME280;21680;52.400;16.920;2023-07-31T10:00:17;100206.32;;;17.04;77.35
35577;BME280;21680;52.400;16.920;2023-07-31T10:02:46;100205.63;;;16.90;77.58
35577;BME280;21680;52.400;16.920;2023-07-31T10:05:14;100201.52;;;16.77;78.22
35577;BME280;21680;52.400;16.920;2023-07-31T10:07:43;100197.38;;;16.70;78.48
35577;BME280;21680;52.400;16.920;2023-07-31T10:10:10;100191.07;;;16.70;78.81
35577;BME280;21680;52.400;16.920;2023-07-31T10:12:37;100188.20;;;16.72;79.02
35577;BME280;21680;52.400;16.920;2023-07-31T10:15:03;100189.38;;;16.76;79.37
35577;BME280;21680;52.400;16.920;2023-07-31T10:17:30;100181.24;;;16.80;79.57
35577;BME280;21680;52.400;16.920;2023-07-31T10:20:00;100182.70;;;16.87;80.33
35577;BME280;21680;52.400;16.920;2023-07-31T10:22:29;100175.85;;;16.92;80.83
35577;BME280;21680;52.400;16.920;2023-07-31T10:24:57;100176.02;;;16.97;80.64
35577;BME280;21680;52.400;16.920;2023-07-31T10:27:23;100174.89;;;17.00;80.71
35577;BME280;21680;52.400;16.920;2023-07-31T10:29:48;100171.66;;;16.97;80.95
35577;BME280;21680;52.400;16.920;2023-07-31T10:32:15;100171.63;;;16.95;81.09
35577;BME280;21680;52.400;16.920;2023-07-31T10:34:41;100168.55;;;16.93;81.51
35577;BME280;21680;52.400;16.920;2023-07-31T10:39:57;100166.70;;;16.91;82.08
35577;BME280;21680;52.400;16.920;2023-07-31T10:42:36;100163.95;;;16.89;82.37
35577;BME280;21680;52.400;16.920;2023-07-31T10:45:07;100162.48;;;16.87;82.72
35577;BME280;21680;52.400;16.920;2023-07-31T10:47:42;100159.22;;;16.85;83.02
35577;BME280;21680;52.400;16.920;2023-07-31T10:50:20;100157.51;;;16.81;83.35
35577;BME280;21680;52.400;16.920;2023-07-31T10:52:51;100156.68;;;16.83;83.62
35577;BME280;21680;52.400;16.920;2023-07-31T10:57:52;100156.80;;;16.95;84.33
35577;BME280;21680;52.400;16.920;2023-07-31T11:00:22;100154.88;;;17.11;84.93
35577;BME280;21680;52.400;16.920;2023-07-31T11:03:18;100152.67;;;17.27;85.22
35577;BME280;21680;52.400;16.920;2023-07-31T11:06:02;100147.69;;;17.38;85.45
35577;BME280;21680;52.400;16.920;2023-07-31T11:08:44;100143.52;;;17.44;85.49
35577;BME280;21680;52.400;16.920;2023-07-31T11:11:12;100140.11;;;17.49;85.64
35577;BME280;21680;52.400;16.920;2023-07-31T11:13:47;100135.33;;;17.52;85.63
35577;BME280;21680;52.400;16.920;2023-07-31T11:16:18;100129.86;;;17.50;85.91
35577;BME280;21680;52.400;16.920;2023-07-31T11:18:45;100128.77;;;17.50;86.25
35577;BME280;21680;52.400;16.920;2023-07-31T11:21:17;100134.27;;;17.51;86.32
35577;BME280;21680;52.400;16.920;2023-07-31T11:23:48;100133.39;;;17.54;86.55
35577;BME280;21680;52.400;16.920;2023-07-31T11:26:16;100131.98;;;17.62;86.79
35577;BME280;21680;52.400;16.920;2023-07-31T11:28:42;100126.48;;;17.68;87.05
35577;BME280;21680;52.400;16.920;2023-07-31T11:31:10;100120.94;;;17.71;87.10
35577;BME280;21680;52.400;16.920;2023-07-31T11:33:36;100119.43;;;17.70;87.18
35577;BME280;21680;52.400;16.920;2023-07-31T11:36:14;100120.02;;;17.71;87.24
35577;BME280;21680;52.400;16.920;2023-07-31T11:38:40;100119.27;;;17.72;87.31
35577;BME280;21680;52.400;16.920;2023-07-31T11:41:06;100111.35;;;17.76;87.32
35577;BME280;21680;52.400;16.920;2023-07-31T11:43:31;100109.13;;;17.74;87.34
35577;BME280;21680;52.400;16.920;2023-07-31T11:45:59;100102.83;;;17.72;87.20
35577;BME280;21680;52.400;16.920;2023-07-31T11:48:29;100101.98;;;17.74;87.35
35577;BME280;21680;52.400;16.920;2023-07-31T11:50:58;100099.27;;;17.71;87.36
35577;BME280;21680;52.400;16.920;2023-07-31T11:53:31;100099.87;;;17.66;87.26
35577;BME280;21680;52.400;16.920;2023-07-31T11:55:59;100100.52;;;17.62;87.45
35577;BME280;21680;52.400;16.920;2023-07-31T11:58:26;100103.80;;;17.60;87.44
35577;BME280;21680;52.400;16.920;2023-07-31T12:00:52;100099.20;;;17.56;87.41
35577;BME280;21680;52.400;16.920;2023-07-31T12:03:18;100098.71;;;17.56;87.52
35577;BME280;21680;52.400;16.920;2023-07-31T12:05:44;100094.90;;;17.56;87.50
35577;BME280;21680;52.400;16.920;2023-07-31T12:08:11;100102.56;;;17.57;87.67
35577;BME280;21680;52.400;16.920;2023-07-31T12:10:37;100100.70;;;17.58;87.74
35577;BME280;21680;52.400;16.920;2023-07-31T12:13:05;100099.11;;;17.55;87.62
35577;BME280;21680;52.400;16.920;2023-07-31T12:15:34;100098.64;;;17.50;87.63
35577;BME280;21680;52.400;16.920;2023-07-31T12:18:03;100096.55;;;17.47;87.68
35577;BME280;21680;52.400;16.920;2023-07-31T12:20:30;100094.00;;;17.45;87.83
35577;BME280;21680;52.400;16.920;2023-07-31T12:22:56;100088.90;;;17.48;87.92
35577;BME280;21680;52.400;16.920;2023-07-31T12:25:23;100084.48;;;17.58;87.95
35577;BME280;21680;52.400;16.920;2023-07-31T12:27:50;100085.89;;;17.71;87.86
35577;BME280;21680;52.400;16.920;2023-07-31T12:30:28;100082.52;;;17.88;88.06
35577;BME280;21680;52.400;16.920;2023-07-31T12:32:54;100080.67;;;18.13;88.10
35577;BME280;21680;52.400;16.920;2023-07-31T12:35:19;100079.54;;;18.26;88.04
35577;BME280;21680;52.400;16.920;2023-07-31T12:37:44;100074.14;;;18.38;87.86
35577;BME280;21680;52.400;16.920;2023-07-31T12:40:10;100076.44;;;18.47;87.73
35577;BME280;21680;52.400;16.920;2023-07-31T12:42:36;100068.22;;;18.52;87.57
35577;BME280;21680;52.400;16.920;2023-07-31T12:45:01;100075.63;;;18.52;87.36
35577;BME280;21680;52.400;16.920;2023-07-31T12:47:26;100072.83;;;18.45;87.06